createdAt,value
2022-09-06T00:00:14.455Z,15.27
2022-09-06T00:05:11.358Z,14.60
2022-09-06T00:07:39.323Z,15.00
2022-09-06T00:10:07.687Z,13.80
2022-09-06T00:12:35.470Z,14.10
2022-09-06T00:15:04.205Z,15.85
2022-09-06T00:17:32.743Z,14.52
2022-09-06T00:20:00.279Z,13.43
2022-09-06T00:22:27.720Z,12.55
2022-09-06T00:24:55.083Z,11.45
2022-09-06T00:27:22.913Z,11.18
2022-09-06T00:29:50.367Z,9.55
2022-09-06T00:32:17.880Z,10.63
2022-09-06T00:34:45.263Z,8.63
2022-09-06T00:37:12.651Z,8.65
2022-09-06T00:39:40.149Z,8.07
2022-09-06T00:42:12.676Z,7.38
2022-09-06T00:44:40.852Z,7.75
2022-09-06T00:47:08.870Z,6.97
2022-09-06T00:49:46.557Z,7.45
2022-09-06T00:52:16.662Z,16.13
2022-09-06T00:54:44.483Z,7.70
2022-09-06T00:57:13.322Z,7.47
2022-09-06T00:59:43.261Z,7.30
2022-09-06T01:02:11.810Z,6.85
2022-09-06T01:04:42.938Z,7.65
2022-09-06T01:07:19.272Z,7.47
2022-09-06T01:10:08.163Z,8.15
2022-09-06T01:12:54.119Z,6.78
2022-09-06T01:15:33.503Z,7.40
2022-09-06T01:18:19.688Z,10.75
2022-09-06T01:20:58.703Z,13.55
2022-09-06T01:23:45.451Z,7.30
2022-09-06T01:26:51.057Z,7.43
2022-09-06T01:29:57.468Z,7.60
2022-09-06T01:32:49.666Z,7.03
2022-09-06T01:35:35.633Z,7.13
2022-09-06T01:38:04.119Z,6.82
2022-09-06T01:40:35.742Z,6.88
2022-09-06T01:43:11.154Z,6.78
2022-09-06T01:45:48.752Z,6.88
2022-09-06T01:48:22.199Z,7.20
2022-09-06T01:51:11.148Z,8.13
2022-09-06T01:53:47.974Z,7.25
2022-09-06T01:56:47.327Z,7.65
2022-09-06T01:59:43.964Z,7.60
2022-09-06T02:02:27.808Z,8.32
2022-09-06T02:05:06.480Z,7.88
2022-09-06T02:07:37.109Z,8.60
2022-09-06T02:10:21.555Z,9.38
2022-09-06T02:12:53.727Z,9.30
2022-09-06T02:15:24.055Z,8.85
2022-09-06T02:17:59.849Z,10.15
2022-09-06T02:20:31.655Z,9.40
2022-09-06T02:23:04.104Z,9.85
2022-09-06T02:25:39.847Z,8.88
2022-09-06T02:28:09.113Z,9.15
2022-09-06T02:30:41.105Z,10.18
2022-09-06T02:33:14.548Z,9.70
2022-09-06T02:35:50.150Z,9.60
2022-09-06T02:38:20.883Z,9.43
2022-09-06T02:40:51.764Z,10.07
2022-09-06T02:43:19.649Z,11.25
2022-09-06T02:45:47.178Z,10.88
2022-09-06T02:48:14.601Z,11.23
2022-09-06T02:50:41.996Z,12.13
2022-09-06T02:53:12.195Z,12.77
2022-09-06T02:55:39.994Z,12.88
2022-09-06T02:58:11.234Z,13.98
2022-09-06T03:00:38.968Z,14.90
2022-09-06T03:03:06.199Z,16.10
2022-09-06T03:05:34.315Z,15.68
2022-09-06T03:08:01.856Z,16.92
2022-09-06T03:10:29.846Z,17.35
2022-09-06T03:12:57.317Z,17.70
2022-09-06T03:15:24.864Z,16.50
2022-09-06T03:17:52.309Z,17.75
2022-09-06T03:20:19.747Z,18.42
2022-09-06T03:22:47.098Z,16.98
2022-09-06T03:25:14.489Z,18.05
2022-09-06T03:27:43.432Z,17.60
2022-09-06T03:30:11.467Z,17.13
2022-09-06T03:32:38.872Z,16.58
2022-09-06T03:35:06.534Z,15.93
2022-09-06T03:37:34.132Z,17.00
2022-09-06T03:40:01.949Z,16.90
2022-09-06T03:42:30.048Z,17.38
2022-09-06T03:44:57.396Z,15.90
2022-09-06T03:47:24.876Z,17.85
2022-09-06T03:49:52.340Z,16.15
2022-09-06T03:52:19.756Z,16.83
2022-09-06T03:54:47.144Z,17.73
2022-09-06T03:57:14.602Z,15.75
2022-09-06T03:59:42.071Z,16.65
2022-09-06T04:02:09.573Z,17.58
2022-09-06T04:04:37.120Z,15.82
2022-09-06T04:07:04.559Z,16.65
2022-09-06T04:09:32.170Z,16.60
2022-09-06T04:11:59.566Z,17.23
2022-09-06T04:14:26.996Z,16.52
2022-09-06T04:16:54.504Z,15.70
2022-09-06T04:19:22.049Z,16.33
2022-09-06T04:21:49.487Z,16.92
2022-09-06T04:24:16.960Z,16.35
2022-09-06T04:26:44.334Z,17.00
2022-09-06T04:29:11.841Z,16.85
2022-09-06T04:31:39.469Z,16.90
2022-09-06T04:34:06.950Z,15.82
2022-09-06T04:36:34.408Z,17.23
2022-09-06T04:39:01.854Z,17.25
2022-09-06T04:41:29.274Z,16.05
2022-09-06T04:43:56.717Z,15.85
2022-09-06T04:46:30.663Z,16.50
2022-09-06T04:48:58.618Z,15.43
2022-09-06T04:51:26.135Z,14.65
2022-09-06T04:53:54.041Z,13.68
2022-09-06T04:56:23.744Z,12.45
2022-09-06T04:58:52.904Z,12.95
2022-09-06T05:01:20.977Z,13.25
2022-09-06T05:03:49.054Z,12.98
2022-09-06T05:06:22.757Z,12.50
2022-09-06T05:08:50.614Z,12.98
2022-09-06T05:11:18.475Z,12.98
2022-09-06T05:13:47.239Z,12.65
2022-09-06T05:16:14.739Z,12.05
2022-09-06T05:18:42.322Z,12.23
2022-09-06T05:21:10.315Z,12.07
2022-09-06T05:23:37.868Z,11.98
2022-09-06T05:26:06.235Z,10.80
2022-09-06T05:28:34.065Z,10.73
2022-09-06T05:31:12.601Z,10.40
2022-09-06T05:33:40.252Z,10.05
2022-09-06T05:36:08.213Z,11.32
2022-09-06T05:38:35.660Z,9.77
2022-09-06T05:41:03.090Z,9.57
2022-09-06T05:43:30.941Z,8.77
2022-09-06T05:45:58.405Z,10.07
2022-09-06T05:48:25.856Z,9.65
2022-09-06T05:51:02.704Z,9.50
2022-09-06T05:53:44.878Z,9.77
2022-09-06T05:56:13.849Z,9.05
2022-09-06T05:58:41.302Z,8.93
2022-09-06T06:01:14.685Z,8.48
2022-09-06T06:03:43.314Z,9.27
2022-09-06T06:06:10.744Z,10.48
2022-09-06T06:08:38.283Z,8.60
2022-09-06T06:11:05.760Z,8.48
2022-09-06T06:13:39.559Z,8.10
2022-09-06T06:16:08.480Z,8.18
2022-09-06T06:18:36.369Z,7.50
2022-09-06T06:21:14.843Z,7.70
2022-09-06T06:23:44.502Z,7.45
2022-09-06T06:26:12.999Z,7.75
2022-09-06T06:28:40.895Z,7.13
2022-09-06T06:31:11.999Z,9.68
2022-09-06T06:33:40.156Z,8.85
2022-09-06T06:36:30.786Z,9.20
2022-09-06T06:38:58.700Z,9.43
2022-09-06T06:41:28.499Z,9.02
2022-09-06T06:43:57.624Z,10.25
2022-09-06T06:46:27.435Z,11.70
2022-09-06T06:48:56.073Z,10.15
2022-09-06T06:51:26.735Z,10.50
2022-09-06T06:53:56.722Z,10.57
2022-09-06T06:56:28.920Z,10.23
2022-09-06T06:58:58.748Z,10.05
2022-09-06T07:01:28.086Z,10.38
2022-09-06T07:03:56.118Z,10.15
2022-09-06T07:09:12.896Z,10.63
2022-09-06T07:11:40.300Z,9.65
2022-09-06T07:14:08.945Z,9.40
2022-09-06T07:16:36.449Z,9.43
2022-09-06T07:19:04.049Z,10.52
2022-09-06T07:21:38.945Z,11.50
2022-09-06T07:24:10.457Z,10.02
2022-09-06T07:26:39.854Z,9.85
2022-09-06T07:29:08.634Z,10.15
2022-09-06T07:34:26.936Z,10.75
2022-09-06T07:36:55.761Z,10.18
2022-09-06T07:39:23.694Z,10.30
2022-09-06T07:41:51.216Z,9.23
2022-09-06T07:44:18.691Z,9.50
2022-09-06T07:46:46.333Z,9.38
2022-09-06T07:49:13.820Z,8.10
2022-09-06T07:51:41.192Z,8.30
2022-09-06T07:56:56.183Z,7.63
2022-09-06T07:59:23.764Z,8.15
2022-09-06T08:01:51.144Z,7.30
2022-09-06T08:04:18.564Z,6.53
2022-09-06T08:12:07.428Z,3.70
2022-09-06T08:14:35.277Z,5.57
2022-09-06T08:17:03.485Z,3.80
2022-09-06T08:19:30.924Z,4.07
2022-09-06T08:21:58.363Z,3.45
2022-09-06T08:24:26.131Z,3.92
2022-09-06T08:26:53.528Z,3.33
2022-09-06T08:29:21.019Z,3.35
2022-09-06T08:31:48.583Z,5.00
2022-09-06T08:34:16.065Z,4.03
2022-09-06T08:36:44.217Z,3.53
2022-09-06T08:39:12.001Z,3.20
2022-09-06T08:42:00.945Z,2.75
2022-09-06T08:44:57.632Z,3.08
2022-09-06T08:47:25.694Z,3.42
2022-09-06T08:50:11.447Z,2.70
2022-09-06T08:53:15.748Z,2.80
2022-09-06T08:55:44.288Z,4.22
2022-09-06T08:58:17.714Z,3.10
2022-09-06T09:00:53.329Z,3.38
2022-09-06T09:03:25.364Z,3.42
2022-09-06T09:05:53.986Z,4.03
2022-09-06T09:08:43.025Z,3.40
2022-09-06T09:11:19.685Z,2.67
2022-09-06T09:13:47.032Z,2.90
2022-09-06T09:16:18.234Z,2.72
2022-09-06T09:18:49.187Z,2.67
2022-09-06T09:21:21.197Z,3.35
2022-09-06T09:23:58.896Z,2.92
2022-09-06T09:26:30.995Z,2.63
2022-09-06T09:29:14.223Z,3.13
2022-09-06T09:31:53.603Z,2.63
2022-09-06T09:34:33.852Z,4.85
2022-09-06T09:40:05.743Z,2.55
2022-09-06T09:42:37.141Z,3.00
2022-09-06T09:45:22.687Z,2.58
2022-09-06T09:47:50.220Z,2.85
2022-09-06T09:50:35.234Z,2.75
2022-09-06T09:53:15.055Z,2.00
2022-09-06T09:55:44.114Z,2.60
2022-09-06T09:58:33.025Z,2.38
2022-09-06T10:01:22.835Z,3.50
2022-09-06T10:09:39.339Z,2.20
2022-09-06T10:12:07.580Z,2.28
2022-09-06T10:14:44.549Z,1.80
2022-09-06T10:17:21.402Z,1.90
2022-09-06T10:19:48.982Z,2.13
2022-09-06T10:22:22.404Z,5.65
2022-09-06T10:25:14.304Z,2.88
2022-09-06T10:28:11.991Z,2.45
2022-09-06T10:30:56.103Z,2.30
2022-09-06T10:33:31.303Z,2.95
2022-09-06T10:36:02.000Z,2.90
2022-09-06T10:38:49.703Z,2.38
2022-09-06T10:41:43.611Z,2.00
2022-09-06T10:44:31.763Z,2.33
2022-09-06T10:47:10.595Z,3.00
2022-09-06T10:49:40.644Z,2.45
2022-09-06T10:52:11.731Z,1.50
2022-09-06T10:54:41.480Z,2.65
2022-09-06T11:00:13.624Z,7.43
2022-09-06T11:05:58.429Z,3.00
2022-09-06T11:11:47.437Z,1.92
2022-09-06T11:14:15.633Z,1.58
2022-09-06T11:17:04.911Z,2.22
2022-09-06T11:19:44.512Z,1.90
2022-09-06T11:22:17.872Z,1.63
2022-09-06T11:25:09.833Z,2.65
2022-09-06T11:27:41.591Z,2.63
2022-09-06T11:30:15.493Z,2.70
2022-09-06T11:32:48.601Z,2.17
2022-09-06T11:35:45.292Z,2.33
2022-09-06T11:38:15.915Z,4.45
2022-09-06T11:40:47.041Z,6.72
2022-09-06T11:43:38.838Z,2.40
2022-09-06T11:46:06.317Z,2.10
2022-09-06T11:49:00.992Z,2.28
2022-09-06T11:51:39.779Z,2.05
2022-09-06T11:54:13.084Z,1.85
2022-09-06T11:56:49.504Z,1.90
2022-09-06T11:59:16.889Z,3.05
2022-09-06T12:01:56.524Z,2.38
2022-09-06T12:04:24.441Z,2.25
2022-09-06T12:07:12.210Z,2.03
2022-09-06T12:09:46.251Z,1.98
2022-09-06T12:12:39.727Z,2.58
2022-09-06T12:15:26.885Z,2.05
2022-09-06T12:17:54.995Z,2.83
2022-09-06T12:20:53.217Z,2.20
2022-09-06T12:23:52.963Z,1.83
2022-09-06T12:26:51.851Z,2.50
2022-09-06T12:29:26.888Z,5.28
2022-09-06T12:31:57.180Z,5.65
2022-09-06T12:34:28.678Z,2.40
2022-09-06T12:37:03.680Z,3.40
2022-09-06T12:39:31.998Z,6.50
2022-09-06T12:42:10.697Z,2.40
2022-09-06T12:44:43.221Z,2.00
2022-09-06T12:47:16.561Z,2.65
2022-09-06T12:49:44.120Z,2.30
2022-09-06T12:52:14.235Z,2.15
2022-09-06T12:54:45.112Z,3.60
2022-09-06T12:57:24.144Z,2.38
2022-09-06T12:59:56.789Z,2.90
2022-09-06T13:02:32.296Z,1.70
2022-09-06T13:05:05.577Z,3.08
2022-09-06T13:07:35.475Z,1.80
2022-09-06T13:10:04.406Z,1.43
2022-09-06T13:12:33.096Z,3.75
2022-09-06T13:15:12.559Z,1.30
2022-09-06T13:17:40.212Z,1.42
2022-09-06T13:20:14.136Z,1.67
2022-09-06T13:22:47.871Z,2.25
2022-09-06T13:25:21.223Z,2.00
2022-09-06T13:27:51.238Z,1.88
2022-09-06T13:30:49.517Z,2.97
2022-09-06T13:33:26.295Z,2.30
2022-09-06T13:36:08.458Z,2.78
2022-09-06T13:38:43.779Z,3.38
2022-09-06T13:41:26.179Z,3.08
2022-09-06T13:44:06.138Z,1.90
2022-09-06T13:46:36.161Z,1.90
2022-09-06T13:49:04.296Z,3.70
2022-09-06T13:51:31.930Z,4.50
2022-09-06T13:54:12.367Z,2.92
2022-09-06T13:56:41.703Z,2.25
2022-09-06T13:59:10.515Z,6.80
2022-09-06T14:01:40.341Z,2.97
2022-09-06T14:04:10.525Z,1.73
2022-09-06T14:06:37.989Z,2.03
2022-09-06T14:09:08.047Z,1.55
2022-09-06T14:11:36.649Z,2.83
2022-09-06T14:14:04.730Z,1.83
2022-09-06T14:16:33.831Z,1.50
2022-09-06T14:19:01.238Z,1.40
2022-09-06T14:21:28.676Z,2.80
2022-09-06T14:23:58.837Z,1.50
2022-09-06T14:26:28.909Z,1.27
2022-09-06T14:28:56.359Z,1.60
2022-09-06T14:31:27.182Z,1.60
2022-09-06T14:33:56.414Z,1.45
2022-09-06T14:36:26.815Z,1.23
2022-09-06T14:38:54.252Z,1.20
2022-09-06T14:41:21.768Z,1.30
2022-09-06T14:43:52.221Z,1.75
2022-09-06T14:46:22.101Z,1.90
2022-09-06T14:48:55.806Z,1.70
2022-09-06T14:51:24.400Z,1.75
2022-09-06T14:53:55.146Z,2.38
2022-09-06T14:58:50.659Z,1.98
2022-09-06T15:01:21.197Z,1.83
2022-09-06T15:03:51.843Z,2.03
2022-09-06T15:06:21.505Z,2.28
2022-09-06T15:08:49.850Z,2.28
2022-09-06T15:11:41.412Z,2.10
2022-09-06T15:14:17.222Z,1.98
2022-09-06T15:16:46.180Z,3.22
2022-09-06T15:19:14.020Z,1.83
2022-09-06T15:21:43.251Z,2.33
2022-09-06T15:24:12.108Z,2.25
2022-09-06T15:26:43.355Z,2.15
2022-09-06T15:29:14.200Z,1.80
2022-09-06T15:34:10.468Z,1.73
2022-09-06T15:36:38.409Z,2.25
2022-09-06T15:39:06.544Z,2.63
2022-09-06T15:41:36.533Z,2.05
2022-09-06T15:44:18.865Z,1.80
2022-09-06T15:46:59.966Z,2.20
2022-09-06T15:49:31.231Z,1.98
2022-09-06T15:52:01.458Z,2.47
2022-09-06T15:54:48.157Z,2.45
2022-09-06T15:57:16.862Z,9.82
2022-09-06T15:59:44.525Z,2.75
2022-09-06T16:02:12.522Z,2.42
2022-09-06T16:04:40.044Z,3.10
2022-09-06T16:07:07.647Z,3.05
2022-09-06T16:09:35.089Z,2.65
2022-09-06T16:12:02.603Z,10.68
2022-09-06T16:14:32.347Z,5.85
2022-09-06T16:16:59.857Z,2.67
2022-09-06T16:19:27.371Z,4.63
2022-09-06T16:21:54.962Z,3.20
2022-09-06T16:24:22.993Z,3.72
2022-09-06T16:26:50.838Z,2.67
2022-09-06T16:29:19.076Z,4.45
2022-09-06T16:31:47.345Z,6.13
2022-09-06T16:34:15.230Z,3.92
2022-09-06T16:36:42.641Z,3.25
2022-09-06T16:39:10.794Z,3.30
2022-09-06T16:41:43.690Z,2.80
2022-09-06T16:44:16.584Z,8.32
2022-09-06T16:46:49.676Z,8.57
2022-09-06T16:49:17.699Z,3.58
2022-09-06T16:51:46.283Z,4.80
2022-09-06T16:54:15.459Z,5.13
2022-09-06T16:56:43.545Z,3.13
2022-09-06T16:59:12.895Z,4.05
2022-09-06T17:01:45.309Z,8.32
2022-09-06T17:04:13.157Z,4.18
2022-09-06T17:06:46.913Z,3.53
2022-09-06T17:09:16.499Z,2.58
2022-09-06T17:11:43.971Z,2.20
2022-09-06T17:14:11.515Z,4.35
2022-09-06T17:16:57.417Z,2.58
2022-09-06T17:19:25.138Z,7.10
2022-09-06T17:21:52.727Z,3.63
2022-09-06T17:24:20.141Z,4.63
2022-09-06T17:26:47.588Z,3.97
2022-09-06T17:29:15.054Z,2.75
2022-09-06T17:31:42.574Z,1.00
2022-09-06T17:34:10.092Z,1.80
2022-09-06T17:36:38.336Z,1.70
2022-09-06T17:39:13.064Z,2.33
2022-09-06T17:41:49.860Z,3.10
2022-09-06T17:44:19.926Z,2.47
2022-09-06T17:47:09.112Z,2.77
2022-09-06T17:49:35.910Z,1.55
2022-09-06T17:52:03.535Z,2.20
2022-09-06T17:54:31.859Z,2.35
2022-09-06T17:56:59.321Z,2.50
2022-09-06T17:59:28.570Z,2.60
2022-09-06T18:01:57.867Z,2.60
2022-09-06T18:04:25.350Z,2.95
2022-09-06T18:06:52.856Z,1.67
2022-09-06T18:09:21.493Z,2.00
2022-09-06T18:11:49.190Z,2.20
2022-09-06T18:14:18.460Z,2.03
2022-09-06T18:16:48.927Z,2.05
2022-09-06T18:19:17.922Z,2.25
2022-09-06T18:21:46.064Z,2.47
2022-09-06T18:24:16.177Z,2.75
2022-09-06T18:26:44.697Z,2.10
2022-09-06T18:29:14.863Z,3.60
2022-09-06T18:31:43.614Z,2.67
2022-09-06T18:34:12.456Z,3.05
2022-09-06T18:36:40.522Z,2.40
2022-09-06T18:39:08.445Z,2.55
2022-09-06T18:41:54.332Z,2.10
2022-09-06T18:44:22.437Z,2.65
2022-09-06T18:46:50.011Z,6.53
2022-09-06T18:49:18.410Z,3.13
2022-09-06T18:51:45.985Z,3.33
2022-09-06T18:54:14.116Z,5.25
2022-09-06T18:56:44.795Z,12.57
2022-09-06T18:59:13.897Z,3.00
2022-09-06T19:01:43.038Z,6.75
2022-09-06T19:04:11.684Z,5.50
2022-09-06T19:06:41.088Z,3.10
2022-09-06T19:09:11.212Z,3.17
2022-09-06T19:11:39.679Z,2.72
2022-09-06T19:14:07.340Z,2.97
2022-09-06T19:16:34.978Z,2.60
2022-09-06T19:19:09.939Z,2.00
2022-09-06T19:21:42.026Z,2.67
2022-09-06T19:24:11.972Z,1.60
2022-09-06T19:26:44.211Z,1.30
2022-09-06T19:29:17.701Z,1.02
2022-09-06T19:31:46.116Z,1.95
2022-09-06T19:34:15.526Z,1.23
2022-09-06T19:36:44.522Z,1.05
2022-09-06T19:39:15.849Z,1.10
2022-09-06T19:41:45.159Z,0.82
2022-09-06T19:44:13.829Z,1.58
2022-09-06T19:46:45.676Z,1.15
2022-09-06T19:49:15.105Z,1.80
2022-09-06T19:51:45.212Z,1.73
2022-09-06T19:54:13.127Z,1.57
2022-09-06T19:56:40.538Z,1.20
2022-09-06T19:59:10.513Z,1.50
2022-09-06T20:01:39.941Z,1.40
2022-09-06T20:04:09.073Z,0.95
2022-09-06T20:06:36.799Z,1.15
2022-09-06T20:09:07.098Z,1.23
2022-09-06T20:11:35.629Z,1.50
2022-09-06T20:14:03.667Z,1.40
2022-09-06T20:16:31.155Z,1.33
2022-09-06T20:18:59.472Z,1.10
2022-09-06T20:21:28.039Z,1.83
2022-09-06T20:23:57.452Z,1.20
2022-09-06T20:26:27.179Z,1.63
2022-09-06T20:29:00.266Z,1.38
2022-09-06T20:31:29.879Z,1.40
2022-09-06T20:34:00.827Z,1.30
2022-09-06T20:38:56.240Z,1.92
2022-09-06T20:41:27.647Z,1.58
2022-09-06T20:43:57.639Z,1.58
2022-09-06T20:46:30.227Z,1.10
2022-09-06T20:49:01.820Z,1.30
2022-09-06T20:51:29.502Z,1.33
2022-09-06T20:53:59.276Z,1.70
2022-09-06T20:56:30.291Z,1.50
2022-09-06T21:01:34.766Z,1.40
2022-09-06T21:04:04.260Z,1.42
2022-09-06T21:06:35.889Z,1.58
2022-09-06T21:09:05.599Z,1.50
2022-09-06T21:11:33.228Z,1.52
2022-09-06T21:14:00.895Z,1.20
2022-09-06T21:16:29.911Z,1.50
2022-09-06T21:18:59.809Z,4.68
2022-09-06T21:21:28.962Z,1.30
2022-09-06T21:23:56.569Z,1.27
2022-09-06T21:26:24.075Z,1.10
2022-09-06T21:28:51.705Z,1.25
2022-09-06T21:31:22.283Z,2.30
2022-09-06T21:33:54.245Z,2.30
2022-09-06T21:36:23.194Z,1.88
2022-09-06T21:38:53.849Z,1.50
2022-09-06T21:41:22.258Z,1.88
2022-09-06T21:43:53.935Z,1.60
2022-09-06T21:46:23.005Z,1.48
2022-09-06T21:48:52.860Z,1.40
2022-09-06T21:51:23.211Z,2.47
2022-09-06T21:53:51.870Z,1.90
2022-09-06T21:56:20.386Z,1.92
2022-09-06T21:58:55.715Z,1.25
2022-09-06T22:01:24.441Z,1.60
2022-09-06T22:03:52.284Z,1.92
2022-09-06T22:06:25.284Z,1.95
2022-09-06T22:08:54.002Z,5.82
2022-09-06T22:11:22.955Z,2.58
2022-09-06T22:13:51.105Z,2.83
2022-09-06T22:16:20.310Z,1.65
2022-09-06T22:18:51.643Z,3.55
2022-09-06T22:21:21.478Z,2.35
2022-09-06T22:23:52.052Z,3.20
2022-09-06T22:26:25.031Z,2.38
2022-09-06T22:29:01.460Z,1.23
2022-09-06T22:31:30.856Z,4.40
2022-09-06T22:33:58.902Z,3.08
2022-09-06T22:36:27.074Z,3.03
2022-09-06T22:38:57.779Z,2.65
2022-09-06T22:43:53.542Z,2.42
2022-09-06T22:46:21.381Z,2.08
2022-09-06T22:48:49.357Z,1.50
2022-09-06T22:51:16.907Z,2.05
2022-09-06T22:53:44.695Z,1.33
2022-09-06T22:56:12.208Z,13.48
2022-09-06T22:58:39.544Z,5.30
2022-09-06T23:01:09.351Z,2.83
2022-09-06T23:03:36.950Z,7.78
2022-09-06T23:06:05.310Z,2.28
2022-09-06T23:08:36.428Z,2.28
2022-09-06T23:11:06.941Z,2.80
2022-09-06T23:13:34.656Z,1.70
2022-09-06T23:16:04.078Z,7.38
2022-09-06T23:18:31.637Z,2.50
2022-09-06T23:21:04.550Z,1.90
2022-09-06T23:23:32.094Z,2.13
2022-09-06T23:26:06.371Z,3.67
2022-09-06T23:28:34.674Z,1.60
2022-09-06T23:31:06.586Z,1.67
2022-09-06T23:33:37.967Z,1.63
2022-09-06T23:36:07.575Z,4.22
2022-09-06T23:38:36.719Z,3.92
2022-09-06T23:41:04.811Z,4.13
2022-09-06T23:43:32.713Z,6.88
2022-09-06T23:46:00.335Z,8.75
2022-09-06T23:48:28.043Z,3.45
2022-09-06T23:50:55.478Z,5.43
2022-09-06T23:53:22.925Z,2.38
2022-09-06T23:55:50.406Z,2.17
2022-09-06T23:58:17.833Z,1.67
